Time;durP1;ratioP1;P1;durP2;ratioP2;P2;SDS_P1;SDS_P2;PMS_P1;PMS_P2;Temp;Humidity;BMP_temperature;BMP_pressure;BME280_temperature;BME280_humidity;BME280_pressure;Samples;Min_cycle;Max_cycle;Signal;HPM_P1;HPM_P2
2023/06/21 00:01:00;;;;;;;15.67;10.33;;;;;;;-145.18;100.00;46652.59;5059290;28;20043;-61
2023/06/21 00:03:25;;;;;;;13.47;10.00;;;;;;;-145.18;100.00;46654.53;5075005;28;20066;-60
2023/06/21 00:05:51;;;;;;;13.33;9.80;;;;;;;-145.18;100.00;46650.63;5075166;28;20060;-61
2023/06/21 00:08:16;;;;;;;18.23;10.50;;;;;;;-145.18;100.00;46650.63;5075990;28;20107;-61
2023/06/21 00:10:44;;;;;;;15.10;10.47;;;;;;;-145.18;100.00;46648.69;5090907;28;20068;-60
2023/06/21 00:13:09;;;;;;;16.07;9.67;;;;;;;-145.18;100.00;46654.53;5095035;28;20051;-61
2023/06/21 00:15:36;;;;;;;15.57;11.57;;;;;;;-145.18;100.00;46652.59;5092309;28;20539;-61
2023/06/21 00:18:02;;;;;;;16.20;11.53;;;;;;;-145.18;100.00;46652.59;5078812;28;20407;-60
2023/06/21 00:20:28;;;;;;;18.17;11.90;;;;;;;-145.18;100.00;46654.53;5091730;28;20521;-60
2023/06/21 00:22:55;;;;;;;18.77;12.90;;;;;;;-145.18;100.00;46654.53;5088359;28;20051;-60
2023/06/21 00:25:22;;;;;;;18.30;12.90;;;;;;;-145.18;100.00;46652.59;5080346;28;20032;-60
2023/06/21 00:27:48;;;;;;;22.53;12.73;;;;;;;-145.18;100.00;46648.69;5081462;28;20029;-60
2023/06/21 00:30:13;;;;;;;18.87;13.03;;;;;;;-145.18;100.00;46656.50;5088160;28;20032;-60
2023/06/21 00:32:38;;;;;;;18.17;13.17;;;;;;;-145.18;100.00;46654.53;5056955;28;20404;-61
2023/06/21 00:35:05;;;;;;;23.03;14.50;;;;;;;-145.18;100.00;46654.53;5060248;28;20024;-60
2023/06/21 00:37:31;;;;;;;21.20;15.40;;;;;;;-145.18;100.00;46652.59;5084847;28;20032;-60
2023/06/21 00:39:56;;;;;;;22.00;14.23;;;;;;;-145.18;100.00;46652.59;5087860;28;20032;-60
2023/06/21 00:42:23;;;;;;;24.70;15.33;;;;;;;-145.18;100.00;46650.63;5084701;28;20039;-60
2023/06/21 00:44:48;;;;;;;24.13;15.03;;;;;;;-145.18;100.00;46654.53;5080796;28;20035;-61
2023/06/21 00:47:13;;;;;;;22.87;15.10;;;;;;;-145.18;100.00;46654.53;5094305;28;20028;-60
2023/06/21 00:49:39;;;;;;;23.83;15.37;;;;;;;-145.18;100.00;46652.59;5088913;28;20388;-61
2023/06/21 00:52:05;;;;;;;26.13;16.67;;;;;;;-145.18;100.00;46652.59;5083932;28;20055;-60
2023/06/21 00:54:34;;;;;;;23.77;16.27;;;;;;;-145.18;100.00;46652.59;5077333;28;20041;-61
2023/06/21 00:57:00;;;;;;;23.00;15.37;;;;;;;-145.18;100.00;46654.53;5073714;28;20027;-60
2023/06/21 00:59:27;;;;;;;25.03;15.50;;;;;;;-145.18;100.00;46648.69;5087989;28;20472;-60
2023/06/21 01:01:58;;;;;;;25.83;16.23;;;;;;;-145.18;100.00;46656.50;5093463;28;20020;-60
2023/06/21 01:04:25;;;;;;;24.63;16.13;;;;;;;-145.18;100.00;46652.59;5093036;28;20471;-60
2023/06/21 01:07:27;;;;;;;25.83;16.60;;;;;;;-145.18;100.00;46652.59;5082737;28;20404;-61
2023/06/21 01:10:16;;;;;;;24.40;15.80;;;;;;;-145.18;100.00;46654.53;5064125;28;20074;-61
2023/06/21 01:13:19;;;;;;;25.60;16.53;;;;;;;-145.18;100.00;46660.41;5093240;28;20395;-60
2023/06/21 01:15:53;;;;;;;27.97;16.87;;;;;;;-145.18;100.00;46656.50;5061783;28;20043;-60
2023/06/21 01:18:22;;;;;;;23.30;17.13;;;;;;;-145.18;100.00;46652.59;5081918;28;20404;-61
2023/06/21 01:20:53;;;;;;;25.80;16.20;;;;;;;-145.18;100.00;46652.59;5075239;28;20032;-60
2023/06/21 01:23:50;;;;;;;28.13;17.63;;;;;;;-145.18;100.00;46656.50;5071685;28;20140;-60
2023/06/21 01:27:06;;;;;;;25.83;16.37;;;;;;;-145.18;100.00;46658.44;5073686;28;20020;-61
2023/06/21 01:29:39;;;;;;;28.57;17.90;;;;;;;-145.18;100.00;46652.59;5018346;28;20065;-61
2023/06/21 01:32:08;;;;;;;26.83;15.97;;;;;;;-145.18;100.00;46652.59;5082120;28;20056;-60
2023/06/21 01:34:34;;;;;;;28.53;17.40;;;;;;;-145.18;100.00;46654.53;5077987;28;20064;-60
2023/06/21 01:37:00;;;;;;;27.13;16.90;;;;;;;-145.18;100.00;46656.50;5082728;28;20495;-60
2023/06/21 01:39:27;;;;;;;28.00;17.73;;;;;;;-145.18;100.00;46654.53;5078029;28;20105;-60
2023/06/21 01:41:53;;;;;;;29.50;17.67;;;;;;;-145.18;100.00;46658.44;5092103;28;20031;-61
2023/06/21 01:44:18;;;;;;;26.67;16.30;;;;;;;-145.18;100.00;46656.50;5092936;28;20032;-61
2023/06/21 01:46:44;;;;;;;24.83;17.20;;;;;;;-145.18;100.00;46652.59;5069571;28;20123;-60
2023/06/21 01:49:12;;;;;;;35.00;17.50;;;;;;;-145.18;100.00;46656.50;5084477;28;20479;-62
2023/06/21 01:51:41;;;;;;;27.47;18.03;;;;;;;-145.18;100.00;46654.53;5092739;28;20020;-68
2023/06/21 01:54:07;;;;;;;32.27;18.80;;;;;;;-145.18;100.00;46656.50;5093154;28;20053;-68
2023/06/21 01:56:37;;;;;;;30.03;18.30;;;;;;;-145.18;100.00;46658.44;5078259;28;20043;-68
2023/06/21 01:59:02;;;;;;;28.13;18.10;;;;;;;-145.18;100.00;46656.50;5065924;28;20433;-68
2023/06/21 02:01:30;;;;;;;26.97;17.23;;;;;;;-145.18;100.00;46656.50;5066648;28;20032;-68
2023/06/21 02:03:59;;;;;;;30.57;18.20;;;;;;;-145.18;100.00;46656.50;5079909;28;20415;-68
2023/06/21 02:06:28;;;;;;;28.20;18.43;;;;;;;-145.18;100.00;46656.50;5079427;28;20045;-68
2023/06/21 02:08:54;;;;;;;29.70;19.57;;;;;;;-145.18;100.00;46656.50;5085977;28;20054;-68
2023/06/21 02:11:21;;;;;;;29.93;19.33;;;;;;;-145.18;100.00;46656.50;5092199;28;20547;-68
2023/06/21 02:13:51;;;;;;;29.53;17.77;;;;;;;-145.18;100.00;46656.50;5067364;28;20040;-68
2023/06/21 02:16:17;;;;;;;33.20;19.00;;;;;;;-145.18;100.00;46654.53;5072216;28;20035;-68
2023/06/21 02:18:43;;;;;;;31.03;18.80;;;;;;;-145.18;100.00;46654.53;5072746;28;20040;-68
2023/06/21 02:21:09;;;;;;;34.77;19.50;;;;;;;-145.18;100.00;46658.44;5073026;28;20042;-68
2023/06/21 02:23:34;;;;;;;31.43;18.67;;;;;;;-145.18;100.00;46654.53;5073129;28;20043;-68
2023/06/21 02:26:00;;;;;;;35.10;20.33;;;;;;;-145.18;100.00;46656.50;5072889;28;20389;-68
2023/06/21 02:28:25;;;;;;;31.27;19.30;;;;;;;-145.18;100.00;46658.44;5072630;28;20031;-68
2023/06/21 02:30:51;;;;;;;31.97;19.33;;;;;;;-145.18;100.00;46652.59;5073564;28;20479;-68
2023/06/21 02:33:16;;;;;;;34.93;21.63;;;;;;;-145.18;100.00;46656.50;5072223;28;20024;-68
2023/06/21 02:35:41;;;;;;;35.13;21.50;;;;;;;-145.18;100.00;46652.59;5087905;28;20057;-69
2023/06/21 02:38:08;;;;;;;38.40;21.03;;;;;;;-145.18;100.00;46654.53;5072225;28;20502;-68
2023/06/21 02:40:33;;;;;;;31.23;19.80;;;;;;;-145.18;100.00;46656.50;5073155;28;20392;-68
2023/06/21 02:42:59;;;;;;;35.77;21.63;;;;;;;-145.18;100.00;46656.50;5085081;28;20043;-69
2023/06/21 02:45:24;;;;;;;35.70;20.20;;;;;;;-145.18;100.00;46617.41;5072662;28;20181;-68
2023/06/21 02:47:50;;;;;;;35.50;21.27;;;;;;;-145.18;100.00;46658.44;5067534;28;20040;-68
2023/06/21 02:50:17;;;;;;;37.03;21.37;;;;;;;-145.18;100.00;46654.53;5063507;28;20527;-68
2023/06/21 02:52:42;;;;;;;39.23;22.43;;;;;;;-145.18;100.00;46654.53;5072577;28;20395;-68
2023/06/21 02:55:08;;;;;;;38.10;21.97;;;;;;;-145.18;100.00;46654.53;5072044;28;20487;-69
2023/06/21 02:57:34;;;;;;;34.00;21.60;;;;;;;-145.18;100.00;46654.53;5057819;28;20033;-68
2023/06/21 03:00:00;;;;;;;38.73;21.83;;;;;;;-145.18;100.00;46654.53;5073101;28;20464;-61
2023/06/21 03:02:33;;;;;;;38.60;22.30;;;;;;;-145.18;100.00;46656.50;5085586;28;20468;-60
2023/06/21 03:04:59;;;;;;;36.67;20.90;;;;;;;-145.18;100.00;46652.59;5073169;28;20032;-61
2023/06/21 03:07:27;;;;;;;35.20;20.23;;;;;;;-145.18;100.00;46656.50;5053639;28;20040;-60
2023/06/21 03:09:52;;;;;;;35.43;20.50;;;;;;;-145.18;100.00;46621.31;5055835;28;20024;-60
2023/06/21 03:12:17;;;;;;;39.20;21.53;;;;;;;-145.18;100.00;46615.47;5073373;28;20016;-61
2023/06/21 03:14:43;;;;;;;35.07;20.23;;;;;;;-145.18;100.00;46654.53;5074340;28;20036;-60
2023/06/21 03:17:09;;;;;;;42.40;22.20;;;;;;;-145.18;100.00;46654.53;5054866;28;20111;-60
2023/06/21 03:19:35;;;;;;;38.60;21.87;;;;;;;-145.18;100.00;46615.47;5075156;28;20029;-61
2023/06/21 03:22:00;;;;;;;39.33;22.40;;;;;;;-145.18;100.00;46617.41;5073766;28;20811;-60
2023/06/21 03:24:32;;;;;;;43.43;22.13;;;;;;;-145.18;100.00;46615.47;5074852;28;20514;-60
2023/06/21 03:26:58;;;;;;;39.87;22.67;;;;;;;-145.18;100.00;46615.47;5073388;28;20488;-60
2023/06/21 03:29:24;;;;;;;42.07;22.93;;;;;;;-145.18;100.00;46615.47;5074874;28;20063;-60
2023/06/21 03:31:49;;;;;;;40.70;24.23;;;;;;;-145.18;100.00;46617.41;5080730;28;20063;-60
2023/06/21 03:34:14;;;;;;;43.60;24.40;;;;;;;-145.18;100.00;46613.50;5076454;28;20033;-60
2023/06/21 03:36:40;;;;;;;38.17;22.27;;;;;;;-145.18;100.00;46615.47;5072097;28;20028;-60
2023/06/21 03:39:06;;;;;;;45.23;24.83;;;;;;;-145.18;100.00;46613.50;5053419;28;20040;-60
2023/06/21 03:41:31;;;;;;;48.97;24.67;;;;;;;-145.18;100.00;46615.47;5070644;28;20032;-60
2023/06/21 03:43:57;;;;;;;41.93;23.60;;;;;;;-145.18;100.00;46654.53;5071357;28;20036;-61
2023/06/21 03:46:22;;;;;;;41.50;23.43;;;;;;;-145.18;100.00;46654.53;5084482;28;20066;-61
2023/06/21 03:48:51;;;;;;;41.97;22.67;;;;;;;-145.18;100.00;46613.50;5073178;28;20039;-61
2023/06/21 03:51:17;;;;;;;40.03;22.33;;;;;;;-145.18;100.00;46617.41;5072482;28;20040;-60
2023/06/21 03:53:42;;;;;;;41.27;22.80;;;;;;;-145.18;100.00;46615.47;5076122;28;20040;-60
2023/06/21 03:56:07;;;;;;;38.97;23.00;;;;;;;-145.18;100.00;46617.41;5053249;28;20450;-61
2023/06/21 03:58:33;;;;;;;40.67;23.40;;;;;;;-145.18;100.00;46617.41;5070646;28;20040;-60
2023/06/21 04:00:58;;;;;;;43.17;23.77;;;;;;;-145.18;100.00;46615.47;5065594;28;20079;-60
2023/06/21 04:03:23;;;;;;;40.20;22.57;;;;;;;-145.18;100.00;46615.47;5076083;28;20040;-61
2023/06/21 04:05:49;;;;;;;38.77;22.03;;;;;;;-145.18;100.00;46615.47;5085887;28;20028;-61
2023/06/21 04:08:14;;;;;;;42.00;23.33;;;;;;;-145.18;100.00;46615.47;5079090;28;20543;-60
2023/06/21 04:10:41;;;;;;;39.43;24.10;;;;;;;-145.18;100.00;46617.41;5067695;28;20032;-68
2023/06/21 04:13:06;;;;;;;42.83;23.50;;;;;;;-145.18;100.00;46617.41;5085603;28;20028;-68
2023/06/21 04:15:33;;;;;;;42.67;21.83;;;;;;;-145.18;100.00;46613.50;5081321;28;20105;-68
2023/06/21 04:17:58;;;;;;;40.83;23.60;;;;;;;-145.18;100.00;46621.31;5075691;28;20028;-68
2023/06/21 04:20:23;;;;;;;45.37;22.80;;;;;;;-145.18;100.00;46617.41;5068928;28;20074;-68
2023/06/21 04:22:49;;;;;;;49.53;24.87;;;;;;;-145.18;100.00;46613.50;5067240;28;20059;-67
2023/06/21 04:25:15;;;;;;;45.70;23.77;;;;;;;-145.18;100.00;46615.47;5081594;28;20447;-68
2023/06/21 04:27:40;;;;;;;40.27;23.70;;;;;;;-145.18;100.00;46613.50;5079959;28;20487;-68
2023/06/21 04:30:09;;;;;;;42.80;23.83;;;;;;;-145.18;100.00;46617.41;5081364;28;20578;-68
2023/06/21 04:32:34;;;;;;;39.00;23.33;;;;;;;-145.18;100.00;46615.47;5074983;28;20136;-68
2023/06/21 04:35:00;;;;;;;46.17;23.70;;;;;;;-145.18;100.00;46619.38;5074774;28;20518;-68
2023/06/21 04:37:25;;;;;;;41.87;23.23;;;;;;;-145.18;100.00;46617.41;5087373;28;20111;-68
2023/06/21 04:39:52;;;;;;;47.60;24.93;;;;;;;-145.18;100.00;46617.41;5064788;28;20132;-68
2023/06/21 04:42:20;;;;;;;42.70;24.97;;;;;;;-145.18;100.00;46619.38;5093203;28;20035;-68
2023/06/21 04:44:49;;;;;;;43.20;24.43;;;;;;;-145.18;100.00;46623.28;5094450;28;20032;-68
2023/06/21 04:47:16;;;;;;;41.50;23.83;;;;;;;-145.18;100.00;46619.38;5075917;28;20036;-69
2023/06/21 04:49:42;;;;;;;42.00;23.87;;;;;;;-145.18;100.00;46621.31;5089470;28;20036;-68
2023/06/21 04:52:09;;;;;;;41.43;23.23;;;;;;;-145.18;100.00;46617.41;5087536;28;20051;-68
2023/06/21 04:54:34;;;;;;;36.83;21.63;;;;;;;-145.18;100.00;46619.38;5082962;28;20033;-68
2023/06/21 04:57:00;;;;;;;34.43;19.63;;;;;;;-145.18;100.00;46617.41;5077573;28;20161;-68
2023/06/21 04:59:25;;;;;;;36.20;20.00;;;;;;;-145.18;100.00;46625.22;5075566;28;20487;-68
2023/06/21 05:01:51;;;;;;;32.93;19.33;;;;;;;-145.18;100.00;46621.31;5090718;28;20115;-68
2023/06/21 05:04:16;;;;;;;23.73;15.43;;;;;;;-145.18;100.00;46623.28;5076199;28;20040;-68
2023/06/21 05:06:42;;;;;;;22.33;12.80;;;;;;;-145.18;100.00;46625.22;5076013;28;20554;-68
2023/06/21 05:09:08;;;;;;;16.03;9.50;;;;;;;-145.18;100.00;46623.28;5078495;28;20039;-68
2023/06/21 05:11:35;;;;;;;17.03;9.90;;;;;;;-145.18;100.00;46627.19;5083509;28;20032;-68
2023/06/21 05:14:00;;;;;;;14.50;7.80;;;;;;;-145.18;100.00;46629.13;5084831;28;20554;-68
2023/06/21 05:16:25;;;;;;;10.97;6.43;;;;;;;-145.18;100.00;46629.13;5084433;28;20116;-68
2023/06/21 05:18:51;;;;;;;11.30;6.30;;;;;;;-145.18;100.00;46635.00;5084596;28;20036;-68
2023/06/21 05:21:16;;;;;;;7.13;4.80;;;;;;;-145.18;100.00;46635.00;5080871;28;20111;-61
2023/06/21 05:23:41;;;;;;;5.30;2.87;;;;;;;-145.18;100.00;46636.94;5058645;28;20049;-60
2023/06/21 05:26:07;;;;;;;4.20;2.73;;;;;;;-145.18;100.00;46640.88;5080634;28;20549;-61
2023/06/21 05:28:32;;;;;;;4.93;2.70;;;;;;;-145.18;100.00;46640.88;5077707;28;20109;-61
2023/06/21 05:30:57;;;;;;;10.27;2.17;;;;;;;-145.18;100.00;46638.91;5082726;28;20063;-61
2023/06/21 05:33:23;;;;;;;4.03;2.03;;;;;;;-145.18;100.00;46640.88;5078707;28;20038;-61
2023/06/21 05:35:48;;;;;;;3.07;1.90;;;;;;;-145.18;100.00;46646.72;5072273;28;20036;-61
2023/06/21 05:38:14;;;;;;;2.73;2.10;;;;;;;-145.18;100.00;46640.88;5080062;28;20048;-61
2023/06/21 05:40:39;;;;;;;5.30;1.80;;;;;;;-145.18;100.00;46644.78;5092113;28;20123;-61
2023/06/21 05:43:05;;;;;;;3.53;2.10;;;;;;;-145.18;100.00;46646.72;5080978;28;20487;-61
2023/06/21 05:45:31;;;;;;;5.50;1.83;;;;;;;-145.18;100.00;46646.72;5085248;28;20066;-61
2023/06/21 05:47:57;;;;;;;3.87;2.37;;;;;;;-145.18;100.00;46648.69;5081237;28;20456;-61
2023/06/21 05:50:23;;;;;;;7.33;2.10;;;;;;;-145.18;100.00;46646.72;5085276;28;20016;-61
2023/06/21 05:52:48;;;;;;;5.80;2.10;;;;;;;-145.18;100.00;46646.72;5087781;28;20058;-61
2023/06/21 05:55:13;;;;;;;2.77;1.97;;;;;;;-145.18;100.00;46648.69;5087358;28;20028;-61
2023/06/21 05:57:39;;;;;;;2.33;1.93;;;;;;;-145.18;100.00;46650.63;5087115;28;20036;-61
2023/06/21 06:00:08;;;;;;;2.80;2.00;;;;;;;-145.18;100.00;46650.63;5087915;28;20032;-61
2023/06/21 06:02:34;;;;;;;4.43;2.00;;;;;;;-145.18;100.00;46648.69;5087692;28;20070;-61
2023/06/21 06:04:59;;;;;;;3.67;2.00;;;;;;;-145.18;100.00;46648.69;5084329;28;20452;-61
2023/06/21 06:07:25;;;;;;;7.57;2.47;;;;;;;-145.18;100.00;46650.63;5075606;28;20527;-61
2023/06/21 06:09:50;;;;;;;3.90;2.00;;;;;;;-145.18;100.00;46652.59;5077861;28;20103;-61
2023/06/21 06:12:17;;;;;;;4.43;2.43;;;;;;;-145.18;100.00;46650.63;5088185;28;20502;-61
2023/06/21 06:14:43;;;;;;;4.10;2.00;;;;;;;-145.18;100.00;46650.63;5074946;28;20424;-61
2023/06/21 06:17:08;;;;;;;3.70;2.40;;;;;;;-145.18;100.00;46650.63;5075369;28;20090;-61
2023/06/21 06:19:35;;;;;;;2.60;1.90;;;;;;;-145.18;100.00;46648.69;5056782;28;20488;-61
2023/06/21 06:22:00;;;;;;;4.63;1.90;;;;;;;-145.18;100.00;46652.59;5080457;28;20043;-61
2023/06/21 06:24:27;;;;;;;4.70;2.50;;;;;;;-145.18;100.00;46650.63;5079280;28;20121;-61
2023/06/21 06:26:53;;;;;;;5.00;2.23;;;;;;;-145.18;100.00;46652.59;5075356;28;20032;-61
2023/06/21 06:29:19;;;;;;;3.13;1.80;;;;;;;-145.18;100.00;46652.59;5084767;28;20024;-61
2023/06/21 06:31:44;;;;;;;4.23;2.20;;;;;;;-145.18;100.00;46652.59;5075072;28;20505;-61
2023/06/21 06:34:10;;;;;;;4.40;2.40;;;;;;;-145.18;100.00;46654.53;5076942;28;20040;-61
2023/06/21 06:36:35;;;;;;;3.50;2.10;;;;;;;-145.18;100.00;46656.50;5072341;28;20032;-61
2023/06/21 06:39:00;;;;;;;3.67;2.20;;;;;;;-145.18;100.00;46654.53;5088899;28;20116;-61
2023/06/21 06:41:27;;;;;;;4.10;1.70;;;;;;;-145.18;100.00;46656.50;5066295;28;20031;-61
2023/06/21 06:43:53;;;;;;;3.53;2.03;;;;;;;-145.18;100.00;46668.22;5073103;28;20033;-61
2023/06/21 06:46:18;;;;;;;6.70;2.00;;;;;;;-145.18;100.00;46660.41;5091849;28;20032;-61
2023/06/21 06:48:43;;;;;;;3.77;1.80;;;;;;;-145.18;100.00;46664.31;5090311;28;20031;-61
2023/06/21 06:51:09;;;;;;;2.33;1.77;;;;;;;-145.18;100.00;46664.31;5073352;28;20027;-61
2023/06/21 06:53:34;;;;;;;2.47;1.33;;;;;;;-145.18;100.00;46662.34;5090414;28;20076;-61
2023/06/21 06:56:00;;;;;;;2.07;1.30;;;;;;;-145.18;100.00;46666.25;5106917;28;20044;-61
2023/06/21 06:58:26;;;;;;;4.17;1.50;;;;;;;-145.18;100.00;46668.22;5090267;28;20088;-61
2023/06/21 07:00:52;;;;;;;5.50;1.53;;;;;;;-145.18;100.00;46668.22;5091104;28;20036;-61
2023/06/21 07:03:17;;;;;;;3.83;1.50;;;;;;;-145.18;100.00;46668.22;5090146;28;20035;-61
2023/06/21 07:05:47;;;;;;;3.97;1.57;;;;;;;-145.18;100.00;46670.16;5092802;28;20391;-61
2023/06/21 07:08:13;;;;;;;3.20;1.77;;;;;;;-145.18;100.00;46668.22;5089885;28;20548;-61
2023/06/21 07:10:39;;;;;;;5.03;1.70;;;;;;;-145.18;100.00;46668.22;5091195;28;20056;-61
2023/06/21 07:13:05;;;;;;;3.30;1.83;;;;;;;-145.18;100.00;46670.16;5077497;28;20081;-61
2023/06/21 07:15:31;;;;;;;3.57;2.10;;;;;;;-145.18;100.00;46664.31;5073282;28;20151;-61
2023/06/21 07:17:56;;;;;;;7.43;1.93;;;;;;;-145.18;100.00;46670.16;5090105;28;20494;-61
2023/06/21 07:20:22;;;;;;;5.03;2.30;;;;;;;-145.18;100.00;46666.25;5091366;28;20131;-61
2023/06/21 07:22:47;;;;;;;2.83;2.10;;;;;;;-145.18;100.00;46668.22;5090272;28;20056;-61
2023/06/21 07:25:14;;;;;;;3.70;2.70;;;;;;;-145.18;100.00;46672.13;5073631;28;20032;-61
2023/06/21 07:27:40;;;;;;;4.20;2.63;;;;;;;-145.18;100.00;46670.16;5090805;28;20032;-61
2023/06/21 07:30:06;;;;;;;4.73;2.83;;;;;;;-145.18;100.00;46674.06;5070007;28;20031;-61
2023/06/21 07:32:33;;;;;;;5.90;2.87;;;;;;;-145.18;100.00;46679.94;5086114;28;20035;-61
2023/06/21 07:34:58;;;;;;;3.63;2.40;;;;;;;-145.18;100.00;46676.03;5083690;28;20085;-61
2023/06/21 07:37:25;;;;;;;4.63;2.80;;;;;;;-145.18;100.00;46674.06;5053537;28;20041;-61
2023/06/21 07:39:51;;;;;;;7.90;2.93;;;;;;;-145.18;100.00;46670.16;5071795;28;20835;-61
2023/06/21 07:42:17;;;;;;;8.70;3.33;;;;;;;-145.18;100.00;46672.13;5072254;28;20032;-61
2023/06/21 07:44:43;;;;;;;8.93;3.63;;;;;;;-145.18;100.00;46676.03;5071769;28;20025;-61
2023/06/21 07:47:08;;;;;;;7.07;4.30;;;;;;;-145.18;100.00;46674.06;5073680;28;20058;-61
2023/06/21 07:49:33;;;;;;;6.30;3.80;;;;;;;-145.18;100.00;46677.97;5075966;28;20020;-61
2023/06/21 07:51:59;;;;;;;8.17;4.50;;;;;;;-145.18;100.00;46677.97;5076882;28;20078;-61
2023/06/21 07:54:24;;;;;;;8.87;5.17;;;;;;;-145.18;100.00;46672.13;5075393;28;20077;-61
2023/06/21 07:56:50;;;;;;;9.23;4.80;;;;;;;-145.18;100.00;46670.16;5058046;28;20066;-61
2023/06/21 07:59:15;;;;;;;8.60;5.07;;;;;;;-145.18;100.00;46677.97;5075861;28;20396;-61
2023/06/21 08:01:40;;;;;;;10.17;5.23;;;;;;;-145.18;100.00;46676.03;5105421;28;20043;-61
2023/06/21 08:04:06;;;;;;;7.47;4.10;;;;;;;-145.18;100.00;46679.94;5076410;28;20107;-61
2023/06/21 08:06:31;;;;;;;7.53;3.67;;;;;;;-145.18;100.00;46681.88;5076545;28;20107;-61
2023/06/21 08:08:56;;;;;;;5.93;3.53;;;;;;;-145.18;100.00;46681.88;5076416;28;20885;-61
2023/06/21 08:11:22;;;;;;;5.77;4.20;;;;;;;-145.18;100.00;46681.88;5077669;28;20036;-61
2023/06/21 08:13:47;;;;;;;7.47;3.83;;;;;;;-145.18;100.00;46677.97;5076260;28;20529;-61
2023/06/21 08:16:13;;;;;;;5.47;3.53;;;;;;;-145.18;100.00;46679.94;5058784;28;20024;-61
2023/06/21 08:18:38;;;;;;;6.50;4.00;;;;;;;-145.18;100.00;46615.47;5075885;28;20030;-61
2023/06/21 08:21:05;;;;;;;5.67;3.93;;;;;;;-145.18;100.00;46656.50;5076176;28;20029;-61
2023/06/21 08:23:31;;;;;;;12.07;3.90;;;;;;;-145.18;100.00;46656.50;5075518;28;20056;-62
2023/06/21 08:25:56;;;;;;;6.37;3.50;;;;;;;-145.18;100.00;46625.22;5075409;28;20028;-62
2023/06/21 08:28:22;;;;;;;7.87;3.27;;;;;;;-145.18;100.00;46552.97;5091049;28;20020;-61
2023/06/21 08:30:47;;;;;;;6.87;3.73;;;;;;;-145.18;100.00;46545.16;5076575;28;20036;-61
2023/06/21 08:33:12;;;;;;;4.03;3.40;;;;;;;-145.18;100.00;46549.06;5094926;28;20023;-61
2023/06/21 08:35:38;;;;;;;6.43;3.60;;;;;;;-145.18;100.00;46547.09;5094791;28;20104;-62
2023/06/21 08:38:03;;;;;;;6.97;3.20;;;;;;;-145.18;100.00;46547.09;5110164;28;20024;-61
2023/06/21 08:40:33;;;;;;;6.70;3.37;;;;;;;-145.18;100.00;46545.16;5094327;28;20488;-61
2023/06/21 08:42:59;;;;;;;5.40;2.97;;;;;;;-145.18;100.00;46552.97;5069108;28;20020;-61
2023/06/21 08:45:25;;;;;;;6.67;3.63;;;;;;;-145.18;100.00;46547.09;5093652;28;20035;-61
2023/06/21 08:47:53;;;;;;;4.70;2.97;;;;;;;-145.18;100.00;46552.97;5094390;28;20032;-62
2023/06/21 08:50:21;;;;;;;4.23;2.63;;;;;;;-145.18;100.00;46560.78;5093778;28;20054;-67
2023/06/21 08:52:48;;;;;;;6.10;3.10;;;;;;;-145.18;100.00;46558.81;5094380;28;20097;-67
2023/06/21 08:55:16;;;;;;;4.50;3.20;;;;;;;-145.18;100.00;46551.00;5093670;28;20032;-67
2023/06/21 08:57:57;;;;;;;4.53;3.30;;;;;;;-145.18;100.00;46552.97;5094016;28;20029;-67
2023/06/21 09:00:28;;;;;;;5.10;3.73;;;;;;;-145.18;100.00;46552.97;5093334;28;20027;-67
2023/06/21 09:03:36;;;;;;;6.90;3.70;;;;;;;-145.18;100.00;46556.88;5093896;28;20489;-67
2023/06/21 09:06:08;;;;;;;4.10;3.27;;;;;;;-145.18;100.00;46541.25;5094020;28;20024;-67
2023/06/21 09:08:34;;;;;;;5.63;3.40;;;;;;;-145.18;100.00;46547.09;5092903;28;20028;-67
2023/06/21 09:11:00;;;;;;;4.83;2.87;;;;;;;-145.18;100.00;46552.97;5093406;28;20032;-67
2023/06/21 09:13:27;;;;;;;8.30;3.23;;;;;;;-145.18;100.00;46552.97;5092634;28;20027;-67
2023/06/21 09:15:54;;;;;;;6.93;2.73;;;;;;;-145.18;100.00;46539.28;5093866;28;20425;-67
2023/06/21 09:18:20;;;;;;;5.47;2.63;;;;;;;-145.18;100.00;46539.28;5091915;28;20068;-67
2023/06/21 09:20:50;;;;;;;5.60;2.27;;;;;;;-145.18;100.00;46551.00;5093308;28;20028;-67
2023/06/21 09:23:16;;;;;;;3.83;2.00;;;;;;;-145.18;100.00;46554.91;5092684;28;20044;-67
2023/06/21 09:25:44;;;;;;;4.50;2.58;;;;;;;-145.18;100.00;46549.06;5093305;28;20489;-67
2023/06/21 09:28:10;;;;;;;5.03;2.20;;;;;;;-145.18;100.00;46562.72;5093156;28;20023;-67
2023/06/21 09:30:36;;;;;;;3.10;2.10;;;;;;;-145.18;100.00;46549.06;5081860;28;20028;-67
2023/06/21 09:33:02;;;;;;;3.70;2.50;;;;;;;-145.18;100.00;46551.00;5073758;28;20020;-67
2023/06/21 09:35:27;;;;;;;6.07;3.00;;;;;;;-145.18;100.00;46547.09;5073451;28;20043;-67
2023/06/21 09:37:52;;;;;;;5.10;2.47;;;;;;;-145.18;100.00;46541.25;5092106;28;20020;-66
2023/06/21 09:40:18;;;;;;;3.03;2.10;;;;;;;-145.18;100.00;46558.81;5108871;28;20028;-67
2023/06/21 09:42:46;;;;;;;3.90;2.80;;;;;;;-145.18;100.00;46564.69;5087965;28;20031;-67
2023/06/21 09:45:16;;;;;;;2.90;1.90;;;;;;;-145.18;100.00;46554.91;5067761;28;20032;-66
2023/06/21 09:47:42;;;;;;;3.10;2.20;;;;;;;-145.18;100.00;46570.53;5092930;28;20106;-66
2023/06/21 09:50:09;;;;;;;4.15;2.63;;;;;;;-145.18;100.00;46576.41;5093010;28;20020;-67
2023/06/21 09:52:35;;;;;;;3.72;2.42;;;;;;;-145.18;100.00;46887.00;5092902;28;20024;-67
2023/06/21 09:55:02;;;;;;;4.28;2.97;;;;;;;-145.18;100.00;46820.56;5092673;28;20034;-66
2023/06/21 09:57:31;;;;;;;4.75;3.10;;;;;;;-145.18;100.00;46564.69;5079407;28;20389;-67
2023/06/21 09:59:59;;;;;;;2.67;1.88;;;;;;;-145.18;100.00;46580.31;5092176;28;20107;-67
2023/06/21 10:02:25;;;;;;;4.93;1.70;;;;;;;-145.18;100.00;46750.25;5067438;28;20487;-67
2023/06/21 10:04:56;;;;;;;1.95;1.50;;;;;;;-145.18;100.00;46953.41;5091617;28;20089;-66
2023/06/21 10:07:22;;;;;;;4.93;1.92;;;;;;;-145.18;100.00;47109.69;5092515;28;20020;-67
2023/06/21 10:09:48;;;;;;;2.58;1.35;;;;;;;-145.18;100.00;47090.16;5090718;28;20031;-67
2023/06/21 10:12:15;;;;;;;2.65;1.40;;;;;;;-145.18;100.00;47047.19;5092740;28;20024;-67
2023/06/21 10:14:41;;;;;;;3.33;1.80;;;;;;;-145.18;100.00;47086.25;5092265;28;20032;-67
2023/06/21 10:17:08;;;;;;;4.28;2.10;;;;;;;-145.18;100.00;47055.00;5074347;28;20107;-66
2023/06/21 10:19:34;;;;;;;4.97;2.22;;;;;;;-145.18;100.00;47047.19;5092161;28;20016;-66
2023/06/21 10:22:10;;;;;;;6.25;1.88;;;;;;;-145.18;100.00;47129.22;5092548;28;20100;-66
2023/06/21 10:24:44;;;;;;;3.65;1.35;;;;;;;-145.18;100.00;47047.19;5091172;28;20483;-66
2023/06/21 10:27:10;;;;;;;1.88;1.35;;;;;;;-145.18;100.00;47033.50;5091532;28;20031;-66
2023/06/21 10:29:38;;;;;;;1.58;1.20;;;;;;;-145.18;100.00;47000.28;5069645;28;20020;-67
2023/06/21 10:32:05;;;;;;;1.73;1.40;;;;;;;-145.18;100.00;47002.25;5083409;28;20037;-67
2023/06/21 10:34:49;;;;;;;3.65;1.20;;;;;;;-145.18;100.00;46998.34;5075123;28;20120;-66
2023/06/21 10:37:25;;;;;;;1.27;1.00;;;;;;;-145.18;100.00;46980.75;5072283;28;20522;-67
2023/06/21 10:39:54;;;;;;;1.83;1.20;;;;;;;-145.18;100.00;46992.47;5080589;28;20028;-66
2023/06/21 10:42:21;;;;;;;7.82;1.65;;;;;;;-145.18;100.00;46994.44;5089862;28;20031;-66
2023/06/21 10:44:49;;;;;;;2.70;1.77;;;;;;;-145.18;100.00;47002.25;5073363;28;20029;-66
2023/06/21 10:47:16;;;;;;;3.42;1.58;;;;;;;-145.18;100.00;46996.38;5075560;28;20447;-66
2023/06/21 10:49:43;;;;;;;2.20;1.52;;;;;;;-145.18;100.00;46994.44;5055420;28;20029;-66
2023/06/21 10:52:09;;;;;;;1.73;1.40;;;;;;;-145.18;100.00;46976.84;5096037;28;20028;-66
2023/06/21 10:54:34;;;;;;;2.95;1.77;;;;;;;-145.18;100.00;46988.56;5076593;28;20050;-66
2023/06/21 10:57:00;;;;;;;8.60;3.05;;;;;;;-145.18;100.00;46992.47;5080014;28;20032;-66
2023/06/21 10:59:26;;;;;;;7.78;2.47;;;;;;;-145.18;100.00;46992.47;5076506;28;20420;-66
2023/06/21 11:01:52;;;;;;;3.60;2.40;;;;;;;-145.18;100.00;46984.66;5080259;28;20086;-66